Observations for SAINT-BRIEUC ARMOR, France (LFRT)

LFRT 200730Z AUTO 25004KT 9999 FEW013 SCT024 OVC033 08/07 Q1033 
LFRT 200700Z AUTO 24003KT 9999 SCT023 OVC032 07/07 Q1033
LFRT 192200Z AUTO 18003KT 7000 FEW024 BKN034 08/08 Q1032
LFRT 192130Z AUTO 16001KT 7000 OVC020 09/08 Q1032   
LFRT 192100Z AUTO 16001KT 9000 OVC021 09/08 Q1032   
LFRT 192030Z AUTO 17001KT 7000 BKN015 OVC020 09/08 Q1032
LFRT 192000Z AUTO 00000KT 8000 -DZ OVC016 09/08 Q1031   
LFRT 191930Z AUTO 15002KT 6000 -DZ OVC016 09/08 Q1031   
LFRT 191900Z AUTO 14001KT 9999 BKN016 OVC023 09/08 Q1031
LFRT 191830Z AUTO 12002KT 9999 OVC019 09/08 Q1031   
LFRT 191800Z AUTO VRB02KT 9999 OVC016 09/08 Q1030   
LFRT 191730Z AUTO 05003KT 9999 BKN004 OVC021 09/09 Q1030
LFRT 191700Z AUTO 04004KT 2900 -DZ BR SCT003 SCT007 OVC018 09/09 Q1030  
LFRT 191630Z AUTO 35006KT 300V020 2500 -DZ BR BKN004 OVC009 09/09 Q1030 
LFRT 191600Z AUTO 32006KT 290V350 7000 DZ BKN010 OVC016 10/09 Q1030 
LFRT 191530Z AUTO 00000KT 9999 SCT019 BKN025 BKN030 11/08 Q1030 
LFRT 191500Z AUTO 00000KT 9999 BKN018 BKN024 OVC045 11/08 Q1029 
LFRT 191430Z AUTO 30005KT 250V360 9999 SCT021 OVC028 11/07 Q1029
LFRT 191400Z AUTO VRB02KT 9999 BKN020 BKN028 OVC080 12/07 Q1029 
LFRT 191330Z AUTO VRB03KT 9999 BKN019 BKN029 OVC082 12/08 Q1029 
LFRT 191300Z AUTO VRB03KT 9999 SCT018 OVC027 11/08 Q1030
LFRT 191230Z AUTO 25003KT 180V310 9999 FEW014 SCT022 OVC027 11/07 Q1030 
LFRT 191200Z AUTO 28004KT 240V320 9999 BKN021 OVC029 10/08 Q1030
LFRT 191130Z AUTO 00000KT 9999 SCT021 BKN031 OVC043 11/06 Q1030 
LFRT 191100Z AUTO VRB02KT 9999 FEW024 OVC035 11/06 Q1030
LFRT 191030Z AUTO VRB02KT 9999 OVC023 10/06 Q1029   
LFRT 191000Z AUTO VRB02KT 9999 BKN027 OVC037 10/05 Q1029
LFRT 190930Z AUTO 27004KT 210V300 9999 BKN029 OVC036 10/07 Q1029
LFRT 190900Z AUTO 28005KT 250V310 9999 OVC032 09/06 Q1029   
LFRT 190830Z AUTO 25004KT 210V270 9999 OVC033 08/07 Q1029   
LFRT 190800Z AUTO VRB03KT 9999 OVC030 08/07 Q1028   
LFRT 190730Z AUTO 25003KT 9999 OVC032 07/07 Q1028